createdAt,value
2018-10-01T00:00:21.462Z,1007.87
2018-10-01T00:00:47.602Z,1007.93
2018-10-01T00:01:13.737Z,1007.96
2018-10-01T00:01:39.886Z,1007.96
2018-10-01T00:02:06.032Z,1007.99
2018-10-01T00:02:32.159Z,1007.97
2018-10-01T00:02:58.300Z,1007.96
2018-10-01T00:03:24.469Z,1007.95
2018-10-01T00:03:50.645Z,1007.94
2018-10-01T00:04:16.791Z,1007.93
2018-10-01T00:04:42.921Z,1007.95
2018-10-01T00:05:09.094Z,1007.94
2018-10-01T00:05:35.254Z,1007.88
2018-10-01T00:06:01.389Z,1007.95
2018-10-01T00:06:27.553Z,1007.92
2018-10-01T00:06:53.684Z,1007.93
2018-10-01T00:07:19.820Z,1007.93
2018-10-01T00:07:45.957Z,1007.91
2018-10-01T00:08:12.107Z,1007.91
2018-10-01T00:08:38.253Z,1007.89
2018-10-01T00:09:04.380Z,1007.92
2018-10-01T00:09:30.512Z,1007.92
2018-10-01T00:09:56.646Z,1007.9
2018-10-01T00:10:22.794Z,1007.91
2018-10-01T00:10:48.927Z,1007.89
2018-10-01T00:11:15.084Z,1007.86
2018-10-01T00:11:41.245Z,1007.86
2018-10-01T00:12:07.380Z,1007.88
2018-10-01T00:12:33.545Z,1007.87
2018-10-01T00:12:59.717Z,1007.86
2018-10-01T00:13:25.849Z,1007.89
2018-10-01T00:13:52.041Z,1007.84
2018-10-01T00:14:18.192Z,1007.85
2018-10-01T00:14:44.318Z,1007.83
2018-10-01T00:15:10.481Z,1007.85
2018-10-01T00:15:36.638Z,1007.89
2018-10-01T00:16:02.772Z,1007.86
2018-10-01T00:16:28.909Z,1007.84
2018-10-01T00:16:55.058Z,1007.86
2018-10-01T00:17:21.217Z,1007.85
2018-10-01T00:17:47.390Z,1007.85
2018-10-01T00:18:13.524Z,1007.85
2018-10-01T00:18:39.674Z,1007.84
2018-10-01T00:19:05.811Z,1007.84
2018-10-01T00:19:31.948Z,1007.84
2018-10-01T00:19:58.098Z,1007.83
2018-10-01T00:20:24.248Z,1007.81
2018-10-01T00:20:50.409Z,1007.83
2018-10-01T00:21:16.547Z,1007.77
2018-10-01T00:21:42.734Z,1007.76
2018-10-01T00:22:08.880Z,1007.81
2018-10-01T00:22:35.027Z,1007.78
2018-10-01T00:23:01.169Z,1007.82
2018-10-01T00:23:27.302Z,1007.82
2018-10-01T00:23:53.465Z,1007.85
2018-10-01T00:24:19.606Z,1007.83
2018-10-01T00:24:45.759Z,1007.82
2018-10-01T00:25:11.896Z,1007.84
2018-10-01T00:25:38.025Z,1007.83
2018-10-01T00:26:04.225Z,1007.82
2018-10-01T00:26:30.332Z,1007.85
2018-10-01T00:26:56.472Z,1007.85
2018-10-01T00:27:22.606Z,1007.8
2018-10-01T00:27:48.739Z,1007.83
2018-10-01T00:28:14.874Z,1007.82
2018-10-01T00:28:41.031Z,1007.84
2018-10-01T00:29:07.178Z,1007.83
2018-10-01T00:29:33.318Z,1007.88
2018-10-01T00:29:59.456Z,1007.86
2018-10-01T00:30:25.586Z,1007.82
2018-10-01T00:30:51.725Z,1007.86
2018-10-01T00:31:17.854Z,1007.88
2018-10-01T00:31:43.989Z,1007.91
2018-10-01T00:32:10.119Z,1007.85
2018-10-01T00:32:36.272Z,1007.85
2018-10-01T00:33:02.386Z,1007.88
2018-10-01T00:33:28.518Z,1007.88
2018-10-01T00:33:54.676Z,1007.89
2018-10-01T00:34:20.833Z,1007.93
2018-10-01T00:34:46.991Z,1007.91
2018-10-01T00:35:13.120Z,1007.91
2018-10-01T00:35:39.278Z,1007.94
2018-10-01T00:36:05.409Z,1007.9
2018-10-01T00:36:31.539Z,1007.92
2018-10-01T00:36:57.676Z,1007.96
2018-10-01T00:37:23.829Z,1007.95
2018-10-01T00:37:49.971Z,1007.94
2018-10-01T00:38:16.110Z,1007.93
2018-10-01T00:38:42.276Z,1007.93
2018-10-01T00:39:08.410Z,1007.95
2018-10-01T00:39:34.546Z,1007.93
2018-10-01T00:40:00.682Z,1007.92
2018-10-01T00:40:26.836Z,1007.9
2018-10-01T00:40:52.972Z,1007.87
2018-10-01T00:41:19.105Z,1007.9
2018-10-01T00:41:45.238Z,1007.9
2018-10-01T00:42:11.392Z,1007.88
2018-10-01T00:42:37.563Z,1007.92
2018-10-01T00:43:03.723Z,1007.86
2018-10-01T00:43:29.869Z,1007.83
2018-10-01T00:43:55.998Z,1007.88
2018-10-01T00:44:22.158Z,1007.85
2018-10-01T00:44:48.285Z,1007.86
2018-10-01T00:45:14.442Z,1007.87
2018-10-01T00:45:40.581Z,1007.82
2018-10-01T00:46:06.715Z,1007.83
2018-10-01T00:46:32.843Z,1007.85
2018-10-01T00:46:59.008Z,1007.9
2018-10-01T00:47:25.164Z,1007.85
2018-10-01T00:47:51.324Z,1007.84
2018-10-01T00:48:17.479Z,1007.81
2018-10-01T00:48:43.645Z,1007.81
2018-10-01T00:49:09.776Z,1007.82
2018-10-01T00:49:35.910Z,1007.84
2018-10-01T00:50:02.044Z,1007.81
2018-10-01T00:50:28.198Z,1007.8
2018-10-01T00:50:54.334Z,1007.78
2018-10-01T00:51:20.470Z,1007.79
2018-10-01T00:51:46.600Z,1007.77
2018-10-01T00:52:12.734Z,1007.8
2018-10-01T00:52:38.860Z,1007.79
2018-10-01T00:53:05.014Z,1007.78
2018-10-01T00:53:31.147Z,1007.77
2018-10-01T00:53:57.284Z,1007.77
2018-10-01T00:54:23.433Z,1007.74
2018-10-01T00:54:49.573Z,1007.77
2018-10-01T00:55:15.702Z,1007.75
2018-10-01T00:55:41.840Z,1007.74
2018-10-01T00:56:08.009Z,1007.75
2018-10-01T00:56:34.138Z,1007.73
2018-10-01T00:57:00.273Z,1007.73
2018-10-01T00:57:26.443Z,1007.76
2018-10-01T00:57:52.570Z,1007.76
2018-10-01T00:58:18.735Z,1007.74
2018-10-01T00:58:44.896Z,1007.75
2018-10-01T00:59:11.025Z,1007.73
2018-10-01T00:59:37.158Z,1007.75
2018-10-01T01:00:03.291Z,1007.72
2018-10-01T01:00:29.453Z,1007.73
2018-10-01T01:00:55.609Z,1007.75
2018-10-01T01:01:21.730Z,1007.76
2018-10-01T01:01:47.869Z,1007.73
2018-10-01T01:02:13.997Z,1007.76
2018-10-01T01:02:40.177Z,1007.75
2018-10-01T01:03:06.332Z,1007.78
2018-10-01T01:03:32.458Z,1007.74
2018-10-01T01:03:58.592Z,1007.72
2018-10-01T01:04:24.751Z,1007.72
2018-10-01T01:04:50.885Z,1007.72
2018-10-01T01:05:17.018Z,1007.7
2018-10-01T01:05:43.146Z,1007.72
2018-10-01T01:06:09.300Z,1007.69
2018-10-01T01:06:35.443Z,1007.7
2018-10-01T01:07:01.597Z,1007.66
2018-10-01T01:07:27.764Z,1007.69
2018-10-01T01:07:53.895Z,1007.71
2018-10-01T01:08:20.021Z,1007.72
2018-10-01T01:08:46.176Z,1007.67
2018-10-01T01:09:12.312Z,1007.68
2018-10-01T01:09:38.463Z,1007.66
2018-10-01T01:10:04.597Z,1007.65
2018-10-01T01:10:30.753Z,1007.65
2018-10-01T01:10:56.887Z,1007.63
2018-10-01T01:11:23.045Z,1007.64
2018-10-01T01:11:49.178Z,1007.64
2018-10-01T01:12:15.314Z,1007.64
2018-10-01T01:12:41.436Z,1007.65
2018-10-01T01:13:07.597Z,1007.62
2018-10-01T01:13:33.733Z,1007.65
2018-10-01T01:13:59.864Z,1007.61
2018-10-01T01:14:26.021Z,1007.65
2018-10-01T01:14:52.158Z,1007.61
2018-10-01T01:15:18.319Z,1007.61
2018-10-01T01:15:44.462Z,1007.63
2018-10-01T01:16:10.637Z,1007.61
2018-10-01T01:16:36.738Z,1007.58
2018-10-01T01:17:02.888Z,1007.61
2018-10-01T01:17:29.023Z,1007.58
2018-10-01T01:17:55.159Z,1007.56
2018-10-01T01:18:21.295Z,1007.58
2018-10-01T01:18:47.437Z,1007.62
2018-10-01T01:19:13.588Z,1007.57
2018-10-01T01:19:39.721Z,1007.57
2018-10-01T01:20:05.854Z,1007.55
2018-10-01T01:20:31.995Z,1007.52
2018-10-01T01:20:58.146Z,1007.51
2018-10-01T01:21:24.283Z,1007.53
2018-10-01T01:21:50.414Z,1007.5
2018-10-01T01:22:16.577Z,1007.5
2018-10-01T01:22:42.711Z,1007.5
2018-10-01T01:23:08.884Z,1007.5
2018-10-01T01:23:34.975Z,1007.51
2018-10-01T01:24:01.134Z,1007.51
2018-10-01T01:24:27.284Z,1007.54
2018-10-01T01:24:53.461Z,1007.5
2018-10-01T01:25:19.627Z,1007.53
2018-10-01T01:25:45.786Z,1007.61
2018-10-01T01:26:11.964Z,1007.6
2018-10-01T01:26:38.097Z,1007.59
2018-10-01T01:27:04.231Z,1007.6
2018-10-01T01:27:30.417Z,1007.58
2018-10-01T01:27:56.550Z,1007.64
2018-10-01T01:28:22.706Z,1007.6
2018-10-01T01:28:48.840Z,1007.62
2018-10-01T01:29:15.005Z,1007.66
2018-10-01T01:29:41.182Z,1007.62
2018-10-01T01:30:07.320Z,1007.62
2018-10-01T01:30:33.453Z,1007.65
2018-10-01T01:30:59.631Z,1007.71
2018-10-01T01:31:25.786Z,1007.68
2018-10-01T01:31:51.919Z,1007.69
2018-10-01T01:32:18.060Z,1007.62
2018-10-01T01:32:44.188Z,1007.66
2018-10-01T01:33:10.351Z,1007.65
2018-10-01T01:33:36.480Z,1007.65
2018-10-01T01:34:02.614Z,1007.67
2018-10-01T01:34:28.750Z,1007.67
2018-10-01T01:34:54.907Z,1007.69
2018-10-01T01:35:21.065Z,1007.68
2018-10-01T01:35:47.195Z,1007.71
2018-10-01T01:36:13.356Z,1007.67
2018-10-01T01:36:39.486Z,1007.68
2018-10-01T01:37:05.619Z,1007.75
2018-10-01T01:37:31.781Z,1007.66
2018-10-01T01:37:57.913Z,1007.66
2018-10-01T01:38:24.042Z,1007.72
2018-10-01T01:38:50.205Z,1007.71
2018-10-01T01:39:16.340Z,1007.74
2018-10-01T01:39:42.468Z,1007.73
2018-10-01T01:40:08.606Z,1007.73
2018-10-01T01:40:34.761Z,1007.73
2018-10-01T01:41:00.895Z,1007.72
2018-10-01T01:41:27.039Z,1007.74
2018-10-01T01:41:53.163Z,1007.74
2018-10-01T01:42:19.303Z,1007.73
2018-10-01T01:42:45.439Z,1007.77
2018-10-01T01:43:11.568Z,1007.76
2018-10-01T01:43:37.719Z,1007.72
2018-10-01T01:44:03.875Z,1007.77
2018-10-01T01:44:30.011Z,1007.76
2018-10-01T01:44:56.178Z,1007.73
2018-10-01T01:45:22.325Z,1007.76
2018-10-01T01:45:48.456Z,1007.78
2018-10-01T01:46:14.610Z,1007.77
2018-10-01T01:46:40.791Z,1007.79
2018-10-01T01:47:06.896Z,1007.75
2018-10-01T01:47:33.027Z,1007.79
2018-10-01T01:47:59.159Z,1007.78
2018-10-01T01:48:25.297Z,1007.78
2018-10-01T01:48:51.416Z,1007.8
2018-10-01T01:49:17.569Z,1007.76
2018-10-01T01:49:43.705Z,1007.74
2018-10-01T01:50:09.867Z,1007.77
2018-10-01T01:50:36.001Z,1007.77
2018-10-01T01:51:02.131Z,1007.77
2018-10-01T01:51:28.268Z,1007.76
2018-10-01T01:51:54.393Z,1007.73
2018-10-01T01:52:20.554Z,1007.74
2018-10-01T01:52:46.720Z,1007.78
2018-10-01T01:53:12.854Z,1007.74
2018-10-01T01:53:38.983Z,1007.75
2018-10-01T01:54:05.112Z,1007.74
2018-10-01T01:54:31.252Z,1007.73
2018-10-01T01:54:57.380Z,1007.75
2018-10-01T01:55:23.513Z,1007.73
2018-10-01T01:55:49.643Z,1007.72
2018-10-01T01:56:15.781Z,1007.76
2018-10-01T01:56:41.913Z,1007.75
2018-10-01T01:57:08.055Z,1007.75
2018-10-01T01:57:34.188Z,1007.8
2018-10-01T01:58:00.320Z,1007.77
2018-10-01T01:58:26.460Z,1007.79
2018-10-01T01:58:52.591Z,1007.8
2018-10-01T01:59:18.725Z,1007.8
2018-10-01T01:59:44.856Z,1007.8
2018-10-01T02:00:11.016Z,1007.85
2018-10-01T02:00:37.168Z,1007.83
2018-10-01T02:01:03.307Z,1007.85
2018-10-01T02:01:29.435Z,1007.8
2018-10-01T02:01:55.572Z,1007.83
2018-10-01T02:02:21.731Z,1007.86
2018-10-01T02:02:47.864Z,1007.85
2018-10-01T02:03:14.004Z,1007.85
2018-10-01T02:03:40.132Z,1007.85
2018-10-01T02:04:06.263Z,1007.85
2018-10-01T02:04:32.424Z,1007.85
2018-10-01T02:04:58.586Z,1007.85
2018-10-01T02:05:24.718Z,1007.81
2018-10-01T02:05:50.846Z,1007.86
2018-10-01T02:06:16.980Z,1007.81
2018-10-01T02:06:43.154Z,1007.8
2018-10-01T02:07:09.285Z,1007.86
2018-10-01T02:07:35.432Z,1007.83
2018-10-01T02:08:01.562Z,1007.81
2018-10-01T02:08:27.717Z,1007.85
2018-10-01T02:08:53.848Z,1007.84
2018-10-01T02:09:19.984Z,1007.86
2018-10-01T02:09:46.128Z,1007.83
2018-10-01T02:10:12.266Z,1007.86
2018-10-01T02:10:38.401Z,1007.86
2018-10-01T02:11:04.547Z,1007.86
2018-10-01T02:11:30.683Z,1007.89
2018-10-01T02:11:56.822Z,1007.86
2018-10-01T02:12:22.978Z,1007.87
2018-10-01T02:12:49.112Z,1007.94
2018-10-01T02:13:15.244Z,1007.85
2018-10-01T02:13:41.375Z,1007.87
2018-10-01T02:14:07.503Z,1007.92
2018-10-01T02:14:33.633Z,1007.96
2018-10-01T02:14:59.800Z,1007.95
2018-10-01T02:15:25.954Z,1007.96
2018-10-01T02:15:52.087Z,1007.93
2018-10-01T02:16:18.219Z,1007.95
2018-10-01T02:16:44.372Z,1007.96
2018-10-01T02:17:10.502Z,1007.94
2018-10-01T02:17:36.640Z,1007.95
2018-10-01T02:18:02.793Z,1007.97
2018-10-01T02:18:28.950Z,1007.95
2018-10-01T02:18:55.083Z,1007.94
2018-10-01T02:19:21.217Z,1007.95
2018-10-01T02:19:47.348Z,1007.96
2018-10-01T02:20:13.485Z,1007.98
2018-10-01T02:20:39.615Z,1008
2018-10-01T02:21:05.749Z,1007.97
2018-10-01T02:21:31.881Z,1007.96
2018-10-01T02:21:58.010Z,1007.98
2018-10-01T02:22:24.147Z,1007.98
2018-10-01T02:22:50.303Z,1007.93
2018-10-01T02:23:16.440Z,1007.98
2018-10-01T02:23:42.571Z,1007.96
2018-10-01T02:24:08.707Z,1007.97
2018-10-01T02:24:34.861Z,1007.96
2018-10-01T02:25:00.993Z,1007.98
2018-10-01T02:25:27.127Z,1007.96
2018-10-01T02:25:53.283Z,1007.95
2018-10-01T02:26:19.416Z,1007.99
2018-10-01T02:26:45.540Z,1007.96
2018-10-01T02:27:11.703Z,1007.92
2018-10-01T02:27:37.837Z,1007.99
2018-10-01T02:28:03.986Z,1008.01
2018-10-01T02:28:30.111Z,1008
2018-10-01T02:28:56.249Z,1007.98
2018-10-01T02:29:22.388Z,1007.97
2018-10-01T02:29:48.520Z,1008.01
2018-10-01T02:30:14.675Z,1008
2018-10-01T02:30:40.830Z,1008.05
2018-10-01T02:31:06.966Z,1008.02
2018-10-01T02:31:33.142Z,1007.99
2018-10-01T02:31:59.276Z,1008.04
2018-10-01T02:32:25.426Z,1008.02
2018-10-01T02:32:51.560Z,1008.04
2018-10-01T02:33:17.709Z,1008.06
2018-10-01T02:33:43.843Z,1008.01
2018-10-01T02:34:09.971Z,1008.01
2018-10-01T02:34:36.109Z,1008.03
2018-10-01T02:35:02.270Z,1008.01
2018-10-01T02:35:28.425Z,1007.99
2018-10-01T02:35:54.632Z,1008.03
2018-10-01T02:36:20.764Z,1008.05
2018-10-01T02:36:46.965Z,1008.05
2018-10-01T02:37:13.053Z,1008.07
2018-10-01T02:37:39.189Z,1008
2018-10-01T02:38:05.323Z,1008.03
2018-10-01T02:38:31.471Z,1008.05
2018-10-01T02:38:57.625Z,1008.05
2018-10-01T02:39:23.765Z,1008.07
2018-10-01T02:39:49.900Z,1008.05
2018-10-01T02:40:16.033Z,1008.05
2018-10-01T02:40:42.192Z,1008.05
2018-10-01T02:41:08.324Z,1008.04
2018-10-01T02:41:34.483Z,1008.05
2018-10-01T02:42:00.662Z,1008.03
2018-10-01T02:42:26.797Z,1008.1
2018-10-01T02:42:52.925Z,1008.05
2018-10-01T02:43:19.060Z,1008.04
2018-10-01T02:43:45.191Z,1008.08
2018-10-01T02:44:11.398Z,1008.07
2018-10-01T02:44:37.528Z,1008.09
2018-10-01T02:45:03.660Z,1008.1
2018-10-01T02:45:29.796Z,1008.03
2018-10-01T02:45:55.957Z,1008.09
2018-10-01T02:46:22.093Z,1008.03
2018-10-01T02:46:48.248Z,1008.06
2018-10-01T02:47:14.378Z,1008.04
2018-10-01T02:47:40.579Z,1008.03
2018-10-01T02:48:06.694Z,1008.09
2018-10-01T02:48:32.893Z,1008.05
2018-10-01T02:48:59.072Z,1008.05
2018-10-01T02:49:25.198Z,1008.07
2018-10-01T02:49:51.361Z,1008.03
2018-10-01T02:50:17.536Z,1008.07
2018-10-01T02:50:43.667Z,1008.03
2018-10-01T02:51:09.821Z,1008.06
2018-10-01T02:51:35.976Z,1008.07
2018-10-01T02:52:02.116Z,1008.02
2018-10-01T02:52:28.291Z,1008.01
2018-10-01T02:52:54.442Z,1007.99
2018-10-01T02:53:20.580Z,1008
2018-10-01T02:53:46.753Z,1008.01
2018-10-01T02:54:12.909Z,1008
2018-10-01T02:54:39.047Z,1008.01
2018-10-01T02:55:05.176Z,1007.95
2018-10-01T02:55:31.352Z,1007.94
2018-10-01T02:55:57.510Z,1007.95
2018-10-01T02:56:23.641Z,1007.96
2018-10-01T02:56:49.793Z,1007.97
2018-10-01T02:57:15.947Z,1007.99
2018-10-01T02:57:42.078Z,1007.99
2018-10-01T02:58:08.231Z,1007.97
2018-10-01T02:58:34.391Z,1007.99
2018-10-01T02:59:00.527Z,1007.99
2018-10-01T02:59:26.679Z,1008.02
2018-10-01T02:59:52.816Z,1007.99
2018-10-01T03:00:18.974Z,1008.02
2018-10-01T03:00:45.106Z,1007.99
2018-10-01T03:01:11.262Z,1008
2018-10-01T03:01:37.450Z,1007.99
2018-10-01T03:02:03.600Z,1008.01
2018-10-01T03:02:29.746Z,1008.01
2018-10-01T03:02:55.886Z,1007.98
2018-10-01T03:03:22.049Z,1008.01
2018-10-01T03:03:48.196Z,1007.97
2018-10-01T03:04:14.332Z,1007.92
2018-10-01T03:04:40.488Z,1007.98
2018-10-01T03:05:06.615Z,1007.96
2018-10-01T03:05:32.770Z,1007.96
2018-10-01T03:05:58.934Z,1007.94
2018-10-01T03:06:25.065Z,1007.94
2018-10-01T03:06:51.221Z,1007.96
2018-10-01T03:07:17.421Z,1007.98
2018-10-01T03:07:43.576Z,1007.99
2018-10-01T03:08:09.707Z,1007.95
2018-10-01T03:08:35.862Z,1007.95
2018-10-01T03:09:02.005Z,1007.94
2018-10-01T03:09:28.140Z,1007.92
2018-10-01T03:09:54.269Z,1007.93
2018-10-01T03:10:20.399Z,1007.9
2018-10-01T03:10:46.539Z,1007.93
2018-10-01T03:11:12.694Z,1007.89
2018-10-01T03:11:38.829Z,1007.93
2018-10-01T03:12:04.975Z,1007.91
2018-10-01T03:12:31.089Z,1007.9
2018-10-01T03:12:57.280Z,1007.94
2018-10-01T03:13:23.438Z,1007.93
2018-10-01T03:13:49.568Z,1007.92
2018-10-01T03:14:15.736Z,1007.95
2018-10-01T03:14:41.891Z,1007.97
2018-10-01T03:15:08.056Z,1007.98
2018-10-01T03:15:34.180Z,1007.97
2018-10-01T03:16:00.314Z,1007.99
2018-10-01T03:16:26.467Z,1007.93
2018-10-01T03:16:52.604Z,1007.94
2018-10-01T03:17:18.786Z,1007.97
2018-10-01T03:17:44.911Z,1007.96
2018-10-01T03:18:11.069Z,1007.97
2018-10-01T03:18:37.204Z,1007.95
2018-10-01T03:19:03.346Z,1007.94
2018-10-01T03:19:29.489Z,1007.92
2018-10-01T03:19:55.639Z,1007.93
2018-10-01T03:20:21.793Z,1007.94
2018-10-01T03:20:47.925Z,1007.89
2018-10-01T03:21:14.138Z,1007.9
2018-10-01T03:21:40.197Z,1007.92
2018-10-01T03:22:06.326Z,1007.94
2018-10-01T03:22:32.459Z,1007.89
2018-10-01T03:22:58.590Z,1007.91
2018-10-01T03:23:24.749Z,1007.93
2018-10-01T03:23:50.881Z,1007.92
2018-10-01T03:24:17.011Z,1007.9
2018-10-01T03:24:43.196Z,1007.94
2018-10-01T03:25:09.327Z,1007.95
2018-10-01T03:25:35.487Z,1007.92
2018-10-01T03:26:01.635Z,1007.93
2018-10-01T03:26:27.776Z,1007.95
2018-10-01T03:26:53.935Z,1007.95
2018-10-01T03:27:20.122Z,1007.96
2018-10-01T03:27:46.252Z,1007.93
2018-10-01T03:28:12.414Z,1007.92
2018-10-01T03:28:38.593Z,1007.91
2018-10-01T03:29:04.768Z,1007.93
2018-10-01T03:29:30.904Z,1007.95
2018-10-01T03:29:57.082Z,1007.93
2018-10-01T03:30:23.258Z,1007.93
2018-10-01T03:30:49.428Z,1007.93
2018-10-01T03:31:15.587Z,1007.92
2018-10-01T03:31:41.734Z,1007.93
2018-10-01T03:32:07.915Z,1007.86
2018-10-01T03:32:34.075Z,1007.86
2018-10-01T03:33:00.225Z,1007.88
2018-10-01T03:33:26.353Z,1007.9
2018-10-01T03:33:52.507Z,1007.85
2018-10-01T03:34:18.645Z,1007.86
2018-10-01T03:34:44.785Z,1007.86
2018-10-01T03:35:10.915Z,1007.84
2018-10-01T03:35:37.077Z,1007.83
2018-10-01T03:36:03.227Z,1007.85
2018-10-01T03:36:29.383Z,1007.84
2018-10-01T03:36:55.511Z,1007.84
2018-10-01T03:37:21.644Z,1007.82
2018-10-01T03:37:47.799Z,1007.83
2018-10-01T03:38:13.978Z,1007.79
2018-10-01T03:38:40.112Z,1007.85
2018-10-01T03:39:06.304Z,1007.85
2018-10-01T03:39:32.430Z,1007.83
2018-10-01T03:39:58.580Z,1007.84
2018-10-01T03:40:24.717Z,1007.81
2018-10-01T03:40:50.857Z,1007.85
2018-10-01T03:41:17.010Z,1007.88
2018-10-01T03:41:43.176Z,1007.87
2018-10-01T03:42:09.326Z,1007.85
2018-10-01T03:42:35.458Z,1007.84
2018-10-01T03:43:01.591Z,1007.86
2018-10-01T03:43:27.726Z,1007.86
2018-10-01T03:43:53.881Z,1007.85
2018-10-01T03:44:20.116Z,1007.86
2018-10-01T03:44:46.244Z,1007.89
2018-10-01T03:45:12.399Z,1007.89
2018-10-01T03:45:38.532Z,1007.9
2018-10-01T03:46:04.655Z,1007.89
2018-10-01T03:46:30.845Z,1007.89
2018-10-01T03:46:56.973Z,1007.9
2018-10-01T03:47:23.104Z,1007.88
2018-10-01T03:47:49.236Z,1007.86
2018-10-01T03:48:15.404Z,1007.9
2018-10-01T03:48:41.536Z,1007.91
2018-10-01T03:49:07.668Z,1007.92
2018-10-01T03:49:33.799Z,1007.92
2018-10-01T03:49:59.979Z,1007.91
2018-10-01T03:50:26.137Z,1007.92
2018-10-01T03:50:52.271Z,1007.92
2018-10-01T03:51:18.399Z,1007.89
2018-10-01T03:51:44.537Z,1007.91
2018-10-01T03:52:10.691Z,1007.93
2018-10-01T03:52:36.823Z,1007.93
2018-10-01T03:53:02.950Z,1007.95
2018-10-01T03:53:29.133Z,1007.94
2018-10-01T03:53:55.285Z,1007.91
2018-10-01T03:54:21.441Z,1007.89
2018-10-01T03:54:47.604Z,1007.92
2018-10-01T03:55:13.762Z,1007.9
2018-10-01T03:55:39.919Z,1007.9
2018-10-01T03:56:06.087Z,1007.94
2018-10-01T03:56:32.244Z,1007.89
2018-10-01T03:56:58.429Z,1007.9
2018-10-01T03:57:24.554Z,1007.88
2018-10-01T03:57:50.692Z,1007.87
2018-10-01T03:58:16.853Z,1007.91
2018-10-01T03:58:43.011Z,1007.87
2018-10-01T03:59:09.141Z,1007.9
2018-10-01T03:59:35.298Z,1007.88
2018-10-01T04:00:01.434Z,1007.85
2018-10-01T04:00:27.566Z,1007.87
2018-10-01T04:00:53.695Z,1007.89
2018-10-01T04:01:19.827Z,1007.88
2018-10-01T04:01:45.961Z,1007.92
2018-10-01T04:02:12.104Z,1007.92
2018-10-01T04:02:38.279Z,1007.92
2018-10-01T04:03:04.494Z,1007.88
2018-10-01T04:03:30.609Z,1007.9
2018-10-01T04:03:56.765Z,1007.94
2018-10-01T04:04:22.900Z,1007.89
2018-10-01T04:04:49.057Z,1007.91
2018-10-01T04:05:15.196Z,1007.88
2018-10-01T04:05:41.368Z,1007.88
2018-10-01T04:06:07.499Z,1007.88
2018-10-01T04:06:33.678Z,1007.87
2018-10-01T04:06:59.857Z,1007.88
2018-10-01T04:07:25.994Z,1007.9
2018-10-01T04:07:52.176Z,1007.9
2018-10-01T04:08:18.308Z,1007.86
2018-10-01T04:08:44.488Z,1007.89
2018-10-01T04:09:10.590Z,1007.85
2018-10-01T04:09:36.746Z,1007.86
2018-10-01T04:10:02.905Z,1007.88
2018-10-01T04:10:29.040Z,1007.84
2018-10-01T04:10:55.169Z,1007.91
2018-10-01T04:11:21.362Z,1007.89
2018-10-01T04:11:47.546Z,1007.89
2018-10-01T04:12:13.704Z,1007.88
2018-10-01T04:12:39.839Z,1007.9
2018-10-01T04:13:05.996Z,1007.92
2018-10-01T04:13:32.199Z,1007.9
2018-10-01T04:13:58.353Z,1007.88
2018-10-01T04:14:24.534Z,1007.9
2018-10-01T04:14:50.700Z,1007.89
2018-10-01T04:15:16.851Z,1007.9
2018-10-01T04:15:43.020Z,1007.89
2018-10-01T04:16:09.168Z,1007.87
2018-10-01T04:16:35.326Z,1007.88
2018-10-01T04:17:01.458Z,1007.87
2018-10-01T04:17:27.640Z,1007.87
2018-10-01T04:17:53.791Z,1007.87
2018-10-01T04:18:19.944Z,1007.88
2018-10-01T04:18:46.125Z,1007.86
2018-10-01T04:19:12.303Z,1007.88
2018-10-01T04:19:38.434Z,1007.87
2018-10-01T04:20:04.568Z,1007.91
2018-10-01T04:20:30.728Z,1007.89
2018-10-01T04:20:56.869Z,1007.9
2018-10-01T04:21:23.018Z,1007.91
2018-10-01T04:21:49.155Z,1007.9
2018-10-01T04:22:15.280Z,1007.9
2018-10-01T04:22:41.457Z,1007.89
2018-10-01T04:23:07.570Z,1007.89
2018-10-01T04:23:33.703Z,1007.88
2018-10-01T04:23:59.845Z,1007.95
2018-10-01T04:24:25.994Z,1007.92
2018-10-01T04:24:52.125Z,1007.9
2018-10-01T04:25:18.283Z,1007.95
2018-10-01T04:25:44.420Z,1007.92
2018-10-01T04:26:10.570Z,1007.89
2018-10-01T04:26:36.723Z,1007.92
2018-10-01T04:27:02.859Z,1007.92
2018-10-01T04:27:28.989Z,1007.9
2018-10-01T04:27:55.145Z,1007.9
2018-10-01T04:28:21.383Z,1007.92
2018-10-01T04:28:47.454Z,1007.93
2018-10-01T04:29:13.616Z,1007.93
2018-10-01T04:29:39.764Z,1007.94
2018-10-01T04:30:05.889Z,1007.94
2018-10-01T04:30:32.047Z,1007.95
2018-10-01T04:30:58.202Z,1007.94
2018-10-01T04:31:24.330Z,1007.96
2018-10-01T04:31:50.464Z,1007.98
2018-10-01T04:32:16.618Z,1007.94
2018-10-01T04:32:42.789Z,1007.94
2018-10-01T04:33:08.877Z,1007.96
2018-10-01T04:33:35.014Z,1007.95
2018-10-01T04:34:01.168Z,1007.94
2018-10-01T04:34:27.293Z,1007.95
2018-10-01T04:34:53.430Z,1008
2018-10-01T04:35:19.561Z,1007.91
2018-10-01T04:35:45.716Z,1007.96
2018-10-01T04:36:11.869Z,1007.94
2018-10-01T04:36:37.994Z,1007.95
2018-10-01T04:37:04.133Z,1007.93
2018-10-01T04:37:30.266Z,1007.95
2018-10-01T04:37:56.404Z,1007.93
2018-10-01T04:38:22.564Z,1007.95
2018-10-01T04:38:48.696Z,1007.96
2018-10-01T04:39:14.820Z,1007.93
2018-10-01T04:39:40.962Z,1007.94
2018-10-01T04:40:07.095Z,1007.94
2018-10-01T04:40:33.246Z,1007.99
2018-10-01T04:40:59.398Z,1007.98
2018-10-01T04:41:25.530Z,1007.99
2018-10-01T04:41:51.659Z,1008.01
2018-10-01T04:42:17.794Z,1007.96
2018-10-01T04:42:43.936Z,1008
2018-10-01T04:43:10.068Z,1008.02
2018-10-01T04:43:36.199Z,1008.03
2018-10-01T04:44:02.322Z,1008.05
2018-10-01T04:44:28.478Z,1008.03
2018-10-01T04:44:54.664Z,1008.05
2018-10-01T04:45:20.830Z,1008.07
2018-10-01T04:45:46.959Z,1008.05
2018-10-01T04:46:13.083Z,1008.08
2018-10-01T04:46:39.284Z,1008.05
2018-10-01T04:47:05.372Z,1008.05
2018-10-01T04:47:31.507Z,1008.04
2018-10-01T04:47:57.652Z,1008.06
2018-10-01T04:48:23.798Z,1008.03
2018-10-01T04:48:49.928Z,1008.07
2018-10-01T04:49:16.064Z,1008.05
2018-10-01T04:49:42.224Z,1008.04
2018-10-01T04:50:08.355Z,1008.02
2018-10-01T04:50:34.497Z,1008.07
2018-10-01T04:51:00.632Z,1008.07
2018-10-01T04:51:26.784Z,1008.1
2018-10-01T04:51:52.945Z,1008.08
2018-10-01T04:52:19.078Z,1008.1
2018-10-01T04:52:45.212Z,1008.12
2018-10-01T04:53:11.370Z,1008.1
2018-10-01T04:53:37.519Z,1008.11
2018-10-01T04:54:03.648Z,1008.1
2018-10-01T04:54:29.788Z,1008.14
2018-10-01T04:54:55.922Z,1008.13
2018-10-01T04:55:22.077Z,1008.15
2018-10-01T04:55:48.235Z,1008.17
2018-10-01T04:56:14.426Z,1008.15
2018-10-01T04:56:40.550Z,1008.15
2018-10-01T04:57:06.705Z,1008.19
2018-10-01T04:57:32.843Z,1008.22
2018-10-01T04:57:59.010Z,1008.15
2018-10-01T04:58:25.317Z,1008.18
2018-10-01T04:58:51.281Z,1008.17
2018-10-01T04:59:17.420Z,1008.17
2018-10-01T04:59:43.550Z,1008.21
2018-10-01T05:00:09.700Z,1008.25
2018-10-01T05:00:35.858Z,1008.21
2018-10-01T05:01:01.991Z,1008.28
2018-10-01T05:01:28.120Z,1008.25
2018-10-01T05:01:54.254Z,1008.23
2018-10-01T05:02:20.419Z,1008.22
2018-10-01T05:02:46.544Z,1008.25
2018-10-01T05:03:12.680Z,1008.23
2018-10-01T05:03:38.806Z,1008.24
2018-10-01T05:04:04.942Z,1008.26
2018-10-01T05:04:31.064Z,1008.22
2018-10-01T05:04:57.201Z,1008.25
2018-10-01T05:05:23.332Z,1008.26
2018-10-01T05:05:49.466Z,1008.26
2018-10-01T05:06:15.753Z,1008.22
2018-10-01T05:06:41.770Z,1008.26
2018-10-01T05:07:07.903Z,1008.25
2018-10-01T05:07:34.038Z,1008.24
2018-10-01T05:08:00.176Z,1008.26
2018-10-01T05:08:26.300Z,1008.27
2018-10-01T05:08:52.435Z,1008.25
2018-10-01T05:09:18.594Z,1008.24
2018-10-01T05:09:44.723Z,1008.28
2018-10-01T05:10:10.857Z,1008.25
2018-10-01T05:10:37.017Z,1008.26
2018-10-01T05:11:03.151Z,1008.26
2018-10-01T05:11:29.283Z,1008.29
2018-10-01T05:11:55.412Z,1008.27
2018-10-01T05:12:21.570Z,1008.25
2018-10-01T05:12:47.697Z,1008.27
2018-10-01T05:13:13.825Z,1008.25
2018-10-01T05:13:39.961Z,1008.24
2018-10-01T05:14:06.140Z,1008.26
2018-10-01T05:14:32.265Z,1008.26
2018-10-01T05:14:58.415Z,1008.25
2018-10-01T05:15:24.557Z,1008.23
2018-10-01T05:15:50.686Z,1008.24
2018-10-01T05:16:16.817Z,1008.25
2018-10-01T05:16:42.949Z,1008.24
2018-10-01T05:17:09.084Z,1008.26
2018-10-01T05:17:35.217Z,1008.23